Metar Cercanos

 

LEPA - Palma De Mallorc, Spain
Distance from station: ONO 38km
Actualización: 11/12/2017 22:00
Few Clouds
Few Clouds
 Viento del O
Viento: O 28 km/h
Temperatura: 14°C
Rocío: 8°C
Humedad: 67%
Barómetro: 1002 hPa
Clouds: Few Clouds
Visibility: 10 km
Cloud details: Few Clouds 762 m
2017/12/11 21:00 LEPA 112100Z 27015KT 9999 FEW025 14/08 Q1002 NOSIG
LEMH - Mahon/Menorca Is, Spain
Distance from station: ENE 105km
Actualización: 11/12/2017 22:00
Few Clouds
Few Clouds
 Viento del O
Viento: O 22 km/h, Racha: 44 km/h
Temperatura: 13°C
Rocío: 8°C
Humedad: 72%
Barómetro: 1003 hPa
Clouds: Few Clouds
Visibility: 10 km
Cloud details: Few Clouds 762 m
2017/12/11 21:00 LEMH 112100Z 26012G24KT 200V290 9999 FEW025 13/08 Q1003
 
LEIB - Ibiza/Es Codola, Spain
Distance from station: OSO 165km
Actualización: 11/12/2017 22:00
Few Clouds
Few Clouds
 Viento del O
Viento: O 22 km/h
Temperatura: 13°C
Rocío: 3°C
Humedad: 51%
Barómetro: 1003 hPa
Clouds: Few Clouds
Visibility: 10 km
Cloud details: Few Clouds 762 m
2017/12/11 21:00 LEIB 112100Z 26012KT 9999 FEW025 13/03 Q1003 NOSIG
LEBL - Barcelona Airpor, Spain
Distance from station: NNO 225km
Actualización: 11/12/2017 22:00
Despejado
Despejado
 Viento del SO
Viento: SO 17 km/h
Temperatura: 11°C
Rocío: 3°C
Humedad: 58%
Barómetro: 1001 hPa
Resumen: Despejado
Visibility: greater than 10 km
2017/12/11 21:00 LEBL 112100Z 22009KT CAVOK 11/03 Q1001 NOSIG
 
LEVC - Valencia (civ/Mi, Spain
Distance from station: NO 188km
Actualización: 11/12/2017 22:00
Despejado
Despejado
 Viento del NO
Viento: NO 6 km/h
Temperatura: 11°C
Rocío: 4°C
Humedad: 62%
Barómetro: 1003 hPa
Resumen: Despejado
Visibility: greater than 10 km
2017/12/11 21:00 LEVC 112100Z 31003KT CAVOK 11/04 Q1003 NOSIG
LEGE - Gerona/Costa Bra, Spain
Distance from station: N 276km
Actualización: 11/12/2017 22:00
Few Clouds
Few Clouds
 Viento del varies
Viento: varies 2 km/h
Temperatura: 5°C
Rocío: 5°C
Humedad: 100%
Barómetro: 1000 hPa
Clouds: Few Clouds
Visibility: 10 km
Cloud details: Few Clouds 1067 m
2017/12/11 21:00 LEGE 112100Z VRB01KT 9999 FEW035 05/05 Q1000
 
LEAL - Alicante/El Alte, Spain
Distance from station: OSO 344km
Actualización: 11/12/2017 22:00
Despejado
Despejado
 Viento del O
Viento: O 9 km/h
Temperatura: 7°C
Sensación frio: 6°C
Rocío: 2°C
Humedad: 71%
Barómetro: 1005 hPa
Resumen: Despejado
Visibility: greater than 10 km
2017/12/11 21:00 LEAL 112100Z 26005KT CAVOK 07/02 Q1005 NOSIG
LEAM - Almeria Airport, Spain
Distance from station: SSO 56km
Actualización: 11/12/2017 22:00
Despejado
Despejado
 Viento del NNE
Viento: NNE 19 km/h
Temperatura: 11°C
Rocío: 2°C
Humedad: 54%
Barómetro: 1005 hPa
Resumen: Despejado
Visibility: greater than 10 km
2017/12/11 21:00 LEAM 112100Z 02010KT CAVOK 11/02 Q1005
 
LEZG - Zaragoza (mil/Ci, Spain
Distance from station: NO 431km
Actualización: 11/12/2017 22:00
Muy nuboso
Muy nuboso
 Viento del ONO
Viento: ONO 28 km/h
Temperatura: 8°C
Sensación frio: 4°C
Rocío: 3°C
Humedad: 71%
Barómetro: 1003 hPa
Clouds: Muy nuboso
Visibility: 10 km
Cloud details: Few Clouds 1372 m
Muy nuboso 1676 m
2017/12/11 21:00 LEZG 112100Z 29015KT 9999 FEW045 BKN055 08/03 Q1003
LEMD - Madrid/Barajas, Spain
Distance from station: ONO 234km
Actualización: 11/12/2017 22:00
Parcialmente nuboso
Parcialmente nuboso
 Viento del O
Viento: O 11 km/h
Temperatura: 7°C
Sensación frio: 5°C
Rocío: 2°C
Humedad: 71%
Barómetro: 1003 hPa
Clouds: Parcialmente nuboso
Visibility: 10 km
Cloud details: Few Clouds 1219 m
Parcialmente nuboso 1829 m
2017/12/11 21:00 LEMD 112100Z 27006KT 230V300 9999 FEW040 SCT060 07/02 Q1003 NOSIG
 
LEGR - Granada Airport, Spain
Distance from station: OSO 62km
Actualización: 11/12/2017 22:00
Muy nuboso
Muy nuboso
 Viento del S
Viento: S 6 km/h
Temperatura: 6°C
Rocío: 5°C
Humedad: 93%
Barómetro: 1007 hPa
Clouds: Muy nuboso
Visibility: 10 km
Cloud details: Few Clouds 610 m
Parcialmente nuboso 1067 m
Muy nuboso 1372 m
2017/12/11 21:00 LEGR 112100Z 18003KT 9999 FEW020 SCT035 BKN045 06/05 Q1007
LEMG - Malaga (civ/Mil), Spain
Distance from station: OSO 227km
Actualización: 11/12/2017 22:00
Parcialmente nuboso
Parcialmente nuboso
 Viento del varies
Viento: varies 2 km/h
Temperatura: 9°C
Rocío: 5°C
Humedad: 76%
Barómetro: 1007 hPa
Clouds: Parcialmente nuboso
Visibility: 10 km
Cloud details: Parcialmente nuboso 1829 m
2017/12/11 21:00 LEMG 112100Z VRB01KT 9999 SCT060 09/05 Q1007 NOSIG
 
LEZL - Sevilla (civ/Mil, Spain
Distance from station: S 318km
Actualización: 11/12/2017 22:00
Despejado
Despejado
 Viento del O
Viento: O 9 km/h
Temperatura: 11°C
Rocío: 7°C
Humedad: 77%
Barómetro: 1008 hPa
Resumen: Despejado
Visibility: greater than 10 km
2017/12/11 21:00 LEZL 112100Z 28005KT CAVOK 11/07 Q1008 NOSIG
LEVT - Vitoria, Spain
Distance from station: NO 226km
Actualización: 11/12/2017 22:00
Muy nuboso
Muy nuboso
 Viento del O
Viento: O 7 km/h
Temperatura: 3°C
Sensación frio: 1°C
Rocío: 1°C
Humedad: 87%
Barómetro: 1004 hPa
Clouds: Muy nuboso
Visibility: 10 km
Cloud details: Few Clouds 610 m
Parcialmente nuboso 1067 m
Muy nuboso 1524 m
2017/12/11 21:00 LEVT 112100Z 26004KT 230V340 9999 FEW020 SCT035 BKN050 03/01 Q1004
 
LEBB - Bilbao/Sondica, Spain
Distance from station: NNO 235km
Actualización: 11/12/2017 22:00
Lluvia débil, Muy nuboso
Lluvia débil, Muy nuboso
 Viento del O
Viento: O 17 km/h, Racha: 35 km/h
Temperatura: 7°C
Sensación frio: 4°C
Rocío: 4°C
Humedad: 81%
Barómetro: 1004 hPa
Resumen: Lluvia débil
Clouds: Muy nuboso
Visibility: 10 km
Cloud details: Few Clouds 914 m
Parcialmente nuboso 1311 m
Muy nuboso 1981 m
2017/12/11 21:00 LEBB 112100Z 27009G19KT 240V300 9999 -RA FEW030 SCT043 BKN065 07/04 Q1004 TEMPO 3000 SHRA SCT020TCU
LESO - San Sebastian/Fu, Spain
Distance from station: N 231km
Actualización: 11/12/2017 22:00
Lluvia débil, Muy nuboso
Lluvia débil, Muy nuboso
 Viento del OSO
Viento: OSO 15 km/h
Temperatura: 7°C
Sensación frio: 4°C
Rocío: 5°C
Humedad: 87%
Barómetro: 1003 hPa
Resumen: Lluvia débil
Clouds: Muy nuboso
Visibility: 8 km
Cloud details: Parcialmente nuboso 914 m
Muy nuboso 1372 m
2017/12/11 21:00 LESO 112100Z 25008KT 190V310 8000 -RA SCT030 BKN045 07/05 Q1003
 
LEVD - Valladolid(Mil/C, Spain
Distance from station: ONO 239km
Actualización: 11/12/2017 21:30
Despejado
Despejado
 Viento del NO
Viento: NO 17 km/h
Temperatura: 1°C
Sensación frio: -3°C
Rocío: -3°C
Humedad: 75%
Barómetro: 1005 hPa
Resumen: Despejado
Visibility: greater than 10 km
2017/12/11 20:30 LEVD 112030Z 31009KT CAVOK 01/M03 Q1005
LESA - Salamanca (civ/M, Spain
Distance from station: ONO 349km
Actualización: 11/12/2017 20:00
NOT Current
Few Clouds
Few Clouds
 Viento del ONO
Viento: ONO 22 km/h
Temperatura: 3°C
Sensación frio: -2°C
Rocío: 1°C
Humedad: 87%
Barómetro: 1003 hPa
Clouds: Few Clouds
Visibility: 10 km
Cloud details: Few Clouds 518 m
2017/12/11 19:00 LESA 111900Z 30012KT 9999 FEW017 03/01 Q1003
 
LEXJ - Santander/Paraya, Spain
Distance from station: NNO 247km
Actualización: 11/12/2017 22:00
Muy nuboso
Muy nuboso
 Viento del ONO
Viento: ONO 31 km/h, Racha: 50 km/h
Temperatura: 10°C
Sensación frio: 7°C
Rocío: 3°C
Humedad: 62%
Barómetro: 1005 hPa
Clouds: Muy nuboso
Visibility: 10 km
Cloud details: Few Clouds 732 m
Parcialmente nuboso 1097 m
Muy nuboso 2438 m
2017/12/11 21:00 LEXJ 112100Z 30017G27KT 270V350 9999 FEW024CB SCT036 BKN080 10/03 Q1005
LEAS - Asturias/Aviles, Spain
Distance from station: NO 214km
Actualización: 11/12/2017 22:00
Lluvia débil, Muy nuboso
Lluvia débil, Muy nuboso
 Viento del SSO
Viento: SSO 6 km/h
Temperatura: 7°C
Rocío: 5°C
Humedad: 87%
Barómetro: 1007 hPa
Resumen: Lluvia débil
Clouds: Muy nuboso
Visibility: 10 km
Cloud details: Parcialmente nuboso 1067 m
Muy nuboso 1676 m
2017/12/11 21:00 LEAS 112100Z 20003KT 170V260 9999 -RA SCT035 BKN055 07/05 Q1007 TEMPO 3000 RA
 
LECO - La Coruna/Alvedr, Spain
Distance from station: ONO 222km
Actualización: 11/12/2017 22:00
Few Clouds
Few Clouds
 Viento del NNO
Viento: NNO 17 km/h
Temperatura: 10°C
Sensación frio: 8°C
Rocío: 4°C
Humedad: 67%
Barómetro: 1009 hPa
Clouds: Few Clouds
Visibility: 10 km
Cloud details: Few Clouds 1067 m
2017/12/11 21:00 LECO 112100Z 34009KT 300V020 9999 FEW035 10/04 Q1009 TEMPO 3000 SHRA SCT020TCU
LEVX - Vigo/Peinador, Spain
Distance from station: O 214km
Actualización: 11/12/2017 22:00
Few Clouds
Few Clouds
 Viento del varies
Viento: varies 4 km/h
Temperatura: 4°C
Rocío: 3°C
Humedad: 93%
Barómetro: 1010 hPa
Clouds: Few Clouds
Visibility: 10 km
Cloud details: Few Clouds 945 m
2017/12/11 21:00 LEVX 112100Z VRB02KT 9999 FEW031 04/03 Q1010 NOSIG